createdAt,value
2022-10-04T00:00:13.120Z,1.08
2022-10-04T00:02:40.494Z,0.97
2022-10-04T00:05:08.724Z,0.80
2022-10-04T00:07:41.246Z,0.95
2022-10-04T00:10:19.302Z,1.05
2022-10-04T00:12:57.154Z,1.00
2022-10-04T00:15:39.636Z,1.30
2022-10-04T00:18:32.868Z,0.95
2022-10-04T00:21:02.598Z,1.00
2022-10-04T00:23:42.247Z,1.10
2022-10-04T00:26:54.792Z,1.00
2022-10-04T00:29:36.355Z,0.97
2022-10-04T00:32:13.301Z,1.00
2022-10-04T00:34:51.922Z,0.98
2022-10-04T00:37:20.252Z,0.90
2022-10-04T00:39:56.196Z,1.20
2022-10-04T00:42:51.827Z,1.10
2022-10-04T00:45:27.919Z,1.00
2022-10-04T00:48:03.998Z,1.10
2022-10-04T00:50:38.549Z,0.82
2022-10-04T00:53:37.846Z,0.85
2022-10-04T00:56:10.458Z,1.00
2022-10-04T00:59:02.629Z,1.00
2022-10-04T01:01:30.276Z,0.80
2022-10-04T01:03:58.266Z,0.93
2022-10-04T01:06:26.586Z,0.95
2022-10-04T01:08:55.363Z,1.20
2022-10-04T01:11:26.856Z,1.00
2022-10-04T01:14:01.931Z,0.90
2022-10-04T01:16:30.008Z,1.00
2022-10-04T01:19:12.319Z,0.95
2022-10-04T01:21:40.640Z,0.97
2022-10-04T01:24:08.509Z,1.30
2022-10-04T01:26:41.430Z,1.13
2022-10-04T01:29:25.576Z,1.38
2022-10-04T01:31:54.332Z,1.10
2022-10-04T01:34:23.594Z,1.40
2022-10-04T01:36:53.027Z,1.40
2022-10-04T01:39:22.139Z,1.30
2022-10-04T01:41:57.650Z,1.25
2022-10-04T01:44:32.278Z,1.38
2022-10-04T01:47:06.393Z,1.30
2022-10-04T01:49:37.585Z,1.13
2022-10-04T01:52:18.614Z,1.00
2022-10-04T01:54:51.511Z,1.10
2022-10-04T01:57:23.555Z,1.02
2022-10-04T02:00:09.355Z,1.10
2022-10-04T02:02:50.496Z,1.02
2022-10-04T02:05:31.533Z,1.20
2022-10-04T02:08:03.607Z,1.55
2022-10-04T02:10:31.145Z,1.95
2022-10-04T02:12:58.518Z,1.30
2022-10-04T02:15:26.923Z,1.00
2022-10-04T02:17:54.894Z,1.60
2022-10-04T02:20:24.210Z,1.20
2022-10-04T02:23:11.138Z,1.27
2022-10-04T02:25:39.212Z,1.00
2022-10-04T02:28:11.245Z,1.23
2022-10-04T02:30:39.298Z,1.42
2022-10-04T02:33:07.827Z,1.15
2022-10-04T02:35:45.673Z,1.30
2022-10-04T02:38:13.204Z,1.30
2022-10-04T02:41:04.839Z,1.10
2022-10-04T02:43:59.194Z,1.00
2022-10-04T02:46:59.417Z,1.20
2022-10-04T02:49:35.043Z,1.30
2022-10-04T02:52:06.215Z,1.13
2022-10-04T02:54:39.861Z,1.20
2022-10-04T02:57:14.239Z,1.10
2022-10-04T02:59:42.621Z,1.15
2022-10-04T03:02:29.993Z,1.20
2022-10-04T03:05:08.838Z,1.23
2022-10-04T03:07:37.019Z,1.20
2022-10-04T03:10:09.626Z,1.15
2022-10-04T03:12:40.906Z,1.20
2022-10-04T03:15:13.274Z,1.13
2022-10-04T03:17:42.612Z,1.40
2022-10-04T03:20:14.742Z,1.35
2022-10-04T03:22:46.925Z,1.00
2022-10-04T03:25:21.397Z,1.10
2022-10-04T03:27:52.018Z,1.20
2022-10-04T03:30:20.912Z,1.17
2022-10-04T03:32:50.951Z,1.00
2022-10-04T03:35:49.989Z,1.27
2022-10-04T03:38:21.244Z,1.10
2022-10-04T03:40:56.651Z,1.15
2022-10-04T03:43:27.502Z,0.93
2022-10-04T03:45:55.835Z,1.08
2022-10-04T03:48:28.692Z,1.00
2022-10-04T03:50:56.582Z,1.30
2022-10-04T03:53:27.604Z,1.30
2022-10-04T03:55:58.222Z,1.20
2022-10-04T03:58:27.856Z,1.30
2022-10-04T04:01:18.291Z,1.90
2022-10-04T04:04:18.749Z,1.70
2022-10-04T04:07:06.607Z,1.40
2022-10-04T04:09:48.233Z,1.20
2022-10-04T04:12:48.416Z,1.45
2022-10-04T04:15:18.363Z,1.52
2022-10-04T04:17:52.993Z,1.20
2022-10-04T04:20:45.185Z,1.58
2022-10-04T04:23:15.989Z,1.33
2022-10-04T04:25:50.485Z,1.27
2022-10-04T04:28:26.795Z,1.40
2022-10-04T04:31:00.882Z,1.40
2022-10-04T04:33:56.600Z,1.40
2022-10-04T04:36:25.486Z,1.63
2022-10-04T04:39:11.845Z,1.30
2022-10-04T04:41:41.097Z,1.40
2022-10-04T04:44:16.957Z,1.05
2022-10-04T04:46:47.873Z,1.30
2022-10-04T04:49:17.809Z,1.40
2022-10-04T04:51:51.336Z,1.48
2022-10-04T04:54:25.141Z,1.17
2022-10-04T04:56:53.747Z,1.10
2022-10-04T04:59:23.784Z,1.17
2022-10-04T05:01:55.066Z,1.10
2022-10-04T05:04:23.407Z,1.10
2022-10-04T05:07:09.707Z,1.15
2022-10-04T05:09:41.074Z,1.00
2022-10-04T05:12:16.324Z,1.00
2022-10-04T05:14:52.414Z,1.10
2022-10-04T05:17:33.780Z,1.00
2022-10-04T05:20:04.523Z,1.00
2022-10-04T05:22:33.040Z,1.73
2022-10-04T05:25:05.601Z,1.10
2022-10-04T05:27:38.820Z,1.10
2022-10-04T05:30:27.950Z,1.40
2022-10-04T05:33:05.241Z,0.98
2022-10-04T05:35:44.819Z,1.10
2022-10-04T05:38:25.944Z,1.60
2022-10-04T05:40:57.026Z,1.30
2022-10-04T05:43:31.119Z,1.50
2022-10-04T05:46:21.048Z,1.60
2022-10-04T05:48:55.976Z,1.50
2022-10-04T05:51:29.456Z,1.42
2022-10-04T05:54:03.219Z,1.40
2022-10-04T05:56:55.521Z,1.60
2022-10-04T05:59:52.875Z,1.48
2022-10-04T06:02:32.144Z,1.40
2022-10-04T06:05:09.933Z,1.50
2022-10-04T06:07:46.781Z,1.77
2022-10-04T06:10:45.233Z,1.85
2022-10-04T06:13:31.107Z,2.03
2022-10-04T06:16:36.096Z,1.80
2022-10-04T06:19:25.381Z,1.45
2022-10-04T06:22:20.089Z,1.40
2022-10-04T06:24:50.729Z,1.55
2022-10-04T06:27:24.938Z,1.75
2022-10-04T06:30:04.258Z,1.48
2022-10-04T06:32:59.979Z,1.63
2022-10-04T06:35:47.182Z,1.30
2022-10-04T06:38:48.910Z,1.50
2022-10-04T06:41:28.617Z,1.35
2022-10-04T06:44:05.506Z,1.85
2022-10-04T06:46:53.021Z,1.40
2022-10-04T06:49:46.327Z,1.70
2022-10-04T06:52:41.889Z,2.17
2022-10-04T06:55:35.800Z,1.70
2022-10-04T06:58:37.557Z,1.55
2022-10-04T07:01:39.687Z,1.80
2022-10-04T07:04:20.476Z,1.52
2022-10-04T07:07:16.092Z,1.50
2022-10-04T07:09:46.267Z,1.70
2022-10-04T07:12:21.245Z,1.80
2022-10-04T07:15:02.548Z,1.77
2022-10-04T07:17:36.670Z,1.98
2022-10-04T07:20:17.540Z,1.83
2022-10-04T07:22:59.827Z,1.50
2022-10-04T07:25:37.289Z,1.60
2022-10-04T07:28:30.883Z,1.02
2022-10-04T07:31:07.149Z,1.27
2022-10-04T07:33:47.208Z,1.40
2022-10-04T07:36:26.269Z,1.20
2022-10-04T07:39:20.342Z,1.40
2022-10-04T07:42:10.318Z,1.35
2022-10-04T07:45:15.168Z,1.20
2022-10-04T07:47:59.834Z,2.13
2022-10-04T07:50:36.680Z,1.17
2022-10-04T07:53:31.737Z,1.30
2022-10-04T07:56:15.825Z,1.38
2022-10-04T08:02:21.819Z,1.63
2022-10-04T08:05:33.255Z,1.40
2022-10-04T08:08:16.651Z,1.50
2022-10-04T08:11:30.332Z,1.30
2022-10-04T08:14:44.660Z,1.23
2022-10-04T08:21:06.002Z,1.40
2022-10-04T08:24:23.275Z,1.85
2022-10-04T08:27:07.283Z,1.60
2022-10-04T08:29:57.280Z,1.60
2022-10-04T08:33:09.578Z,1.35
2022-10-04T08:35:50.805Z,1.40
2022-10-04T08:39:18.950Z,1.60
2022-10-04T08:42:12.635Z,2.10
2022-10-04T08:44:57.165Z,1.83
2022-10-04T08:47:36.827Z,2.10
2022-10-04T08:50:34.481Z,1.60
2022-10-04T08:53:23.490Z,1.40
2022-10-04T08:56:13.822Z,1.38
2022-10-04T08:59:00.529Z,1.10
2022-10-04T09:02:06.636Z,1.30
2022-10-04T09:04:56.906Z,1.80
2022-10-04T09:07:46.775Z,1.60
2022-10-04T09:10:37.719Z,2.45
2022-10-04T09:13:36.076Z,1.85
2022-10-04T09:16:40.740Z,2.25
2022-10-04T09:19:23.139Z,1.67
2022-10-04T09:22:19.320Z,2.08
2022-10-04T09:25:09.641Z,1.80
2022-10-04T09:27:55.584Z,1.50
2022-10-04T09:30:33.804Z,1.38
2022-10-04T09:33:06.053Z,1.43
2022-10-04T09:35:54.191Z,1.60
2022-10-04T09:38:43.550Z,1.65
2022-10-04T09:41:53.515Z,1.83
2022-10-04T09:44:53.174Z,1.58
2022-10-04T09:47:47.854Z,1.40
2022-10-04T09:50:22.141Z,1.85
2022-10-04T09:53:06.659Z,2.00
2022-10-04T09:56:04.056Z,1.60
2022-10-04T09:58:52.697Z,1.30
2022-10-04T10:01:35.876Z,1.30
2022-10-04T10:05:02.726Z,1.10
2022-10-04T10:07:32.628Z,1.23
2022-10-04T10:10:33.887Z,0.98
2022-10-04T10:13:45.764Z,0.82
2022-10-04T10:16:59.230Z,1.00
2022-10-04T10:19:34.459Z,1.10
2022-10-04T10:22:50.021Z,1.20
2022-10-04T10:25:56.177Z,0.82
2022-10-04T10:28:44.641Z,1.08
2022-10-04T10:31:25.798Z,1.03
2022-10-04T10:34:10.718Z,1.17
2022-10-04T10:37:05.587Z,1.20
2022-10-04T10:39:57.460Z,1.20
2022-10-04T10:47:16.105Z,1.20
2022-10-04T10:54:10.581Z,1.20
2022-10-04T10:57:03.973Z,1.45
2022-10-04T11:00:02.915Z,1.15
2022-10-04T11:03:07.336Z,1.10
2022-10-04T11:06:15.744Z,1.30
2022-10-04T11:09:06.470Z,1.30
2022-10-04T11:12:18.673Z,1.20
2022-10-04T11:15:42.481Z,1.10
2022-10-04T11:18:54.371Z,1.20
2022-10-04T11:21:59.241Z,0.90
2022-10-04T11:25:05.061Z,1.17
2022-10-04T11:28:08.402Z,1.10
2022-10-04T11:31:10.884Z,1.20
2022-10-04T11:34:16.559Z,1.10
2022-10-04T11:37:11.000Z,1.05
2022-10-04T11:44:32.028Z,1.40
2022-10-04T11:48:02.497Z,1.40
2022-10-04T11:55:22.518Z,1.30
2022-10-04T11:58:12.156Z,1.00
2022-10-04T12:01:09.927Z,1.00
2022-10-04T12:04:23.564Z,1.10
2022-10-04T12:07:30.359Z,1.00
2022-10-04T12:10:17.466Z,1.13
2022-10-04T12:13:10.088Z,1.10
2022-10-04T12:15:52.420Z,1.40
2022-10-04T12:18:28.927Z,1.20
2022-10-04T12:21:04.238Z,1.20
2022-10-04T12:23:55.425Z,1.05
2022-10-04T12:26:53.047Z,2.00
2022-10-04T12:29:33.859Z,1.10
2022-10-04T12:32:17.132Z,1.10
2022-10-04T12:35:04.506Z,1.00
2022-10-04T12:37:52.778Z,1.00
2022-10-04T12:40:26.743Z,0.97
2022-10-04T12:43:15.963Z,1.17
2022-10-04T12:45:53.028Z,1.00
2022-10-04T12:48:34.137Z,1.10
2022-10-04T12:51:31.083Z,1.13
2022-10-04T12:54:21.160Z,1.10
2022-10-04T12:57:05.701Z,1.10
2022-10-04T12:59:53.741Z,0.90
2022-10-04T13:02:36.324Z,1.15
2022-10-04T13:05:12.861Z,0.90
2022-10-04T13:08:18.580Z,0.80
2022-10-04T13:11:14.274Z,1.00
2022-10-04T13:14:06.794Z,1.30
2022-10-04T13:19:53.499Z,0.90
2022-10-04T13:22:55.413Z,1.00
2022-10-04T13:25:37.340Z,0.90
2022-10-04T13:28:23.364Z,1.10
2022-10-04T13:31:04.649Z,1.20
2022-10-04T13:34:08.053Z,1.00
2022-10-04T13:36:45.970Z,0.90
2022-10-04T13:39:18.543Z,0.80
2022-10-04T13:42:18.157Z,1.10
2022-10-04T13:44:58.620Z,0.90
2022-10-04T13:47:32.309Z,1.00
2022-10-04T13:50:15.040Z,1.20
2022-10-04T13:53:11.146Z,1.10
2022-10-04T13:56:06.500Z,0.90
2022-10-04T13:58:44.767Z,0.90
2022-10-04T14:01:47.059Z,1.30
2022-10-04T14:04:44.503Z,0.90
2022-10-04T14:07:33.450Z,0.93
2022-10-04T14:10:19.920Z,0.80
2022-10-04T14:13:17.346Z,0.93
2022-10-04T14:16:23.800Z,0.90
2022-10-04T14:19:21.449Z,0.97
2022-10-04T14:22:00.341Z,1.10
2022-10-04T14:24:47.271Z,0.98
2022-10-04T14:27:40.123Z,1.00
2022-10-04T14:30:37.385Z,1.13
2022-10-04T14:33:35.410Z,1.10
2022-10-04T14:36:24.400Z,1.05
2022-10-04T14:39:01.352Z,1.17
2022-10-04T14:42:10.562Z,1.45
2022-10-04T14:45:00.101Z,1.10
2022-10-04T14:47:35.450Z,1.10
2022-10-04T14:50:45.149Z,1.10
2022-10-04T14:53:21.047Z,0.90
2022-10-04T14:55:54.861Z,1.00
2022-10-04T14:58:38.607Z,1.00
2022-10-04T15:01:16.189Z,1.30
2022-10-04T15:03:47.208Z,0.90
2022-10-04T15:06:37.158Z,0.90
2022-10-04T15:09:26.748Z,1.20
2022-10-04T15:12:27.036Z,1.15
2022-10-04T15:15:06.243Z,1.00
2022-10-04T15:17:38.565Z,0.95
2022-10-04T15:20:11.219Z,1.05
2022-10-04T15:22:42.464Z,0.90
2022-10-04T15:25:48.225Z,1.00
2022-10-04T15:28:49.947Z,1.10
2022-10-04T15:31:39.246Z,1.20
2022-10-04T15:34:34.757Z,1.10
2022-10-04T15:37:17.506Z,1.10
2022-10-04T15:40:26.645Z,1.10
2022-10-04T15:43:13.662Z,0.93
2022-10-04T15:45:53.355Z,1.00
2022-10-04T15:48:39.227Z,1.08
2022-10-04T15:51:14.402Z,1.20
2022-10-04T15:53:50.554Z,1.08
2022-10-04T15:56:21.075Z,1.07
2022-10-04T15:59:20.501Z,1.10
2022-10-04T16:01:51.337Z,1.23
2022-10-04T16:04:19.172Z,1.20
2022-10-04T16:06:54.213Z,1.23
2022-10-04T16:09:37.776Z,1.30
2022-10-04T16:12:20.715Z,1.30
2022-10-04T16:14:52.610Z,1.50
2022-10-04T16:18:05.450Z,1.48
2022-10-04T16:20:51.093Z,1.67
2022-10-04T16:23:28.223Z,1.80
2022-10-04T16:26:07.133Z,1.60
2022-10-04T16:29:02.267Z,1.48
2022-10-04T16:32:03.360Z,2.00
2022-10-04T16:34:42.712Z,1.73
2022-10-04T16:37:10.513Z,3.77
2022-10-04T16:40:00.411Z,2.63
2022-10-04T16:42:52.226Z,3.33
2022-10-04T16:45:46.043Z,7.25
2022-10-04T16:48:18.418Z,5.20
2022-10-04T16:51:17.081Z,29.97
2022-10-04T16:53:49.938Z,27.63
2022-10-04T16:56:24.771Z,9.23
2022-10-04T16:58:56.543Z,4.60
2022-10-04T17:01:24.187Z,3.78
2022-10-04T17:04:07.639Z,3.00
2022-10-04T17:06:58.315Z,2.35
2022-10-04T17:09:47.653Z,2.53
2022-10-04T17:12:37.569Z,2.00
2022-10-04T17:15:14.569Z,2.17
2022-10-04T17:17:57.777Z,2.10
2022-10-04T17:20:42.853Z,2.40
2022-10-04T17:23:29.545Z,2.42
2022-10-04T17:26:18.310Z,2.55
2022-10-04T17:29:18.362Z,2.08
2022-10-04T17:31:52.438Z,2.33
2022-10-04T17:34:58.911Z,2.60
2022-10-04T17:37:54.586Z,2.22
2022-10-04T17:40:30.519Z,1.92
2022-10-04T17:43:07.510Z,2.38
2022-10-04T17:45:50.932Z,2.83
2022-10-04T17:48:43.159Z,3.83
2022-10-04T17:51:41.744Z,3.40
2022-10-04T17:54:45.084Z,3.40
2022-10-04T17:57:14.624Z,3.50
2022-10-04T17:59:45.135Z,3.30
2022-10-04T18:02:53.924Z,4.53
2022-10-04T18:05:24.089Z,5.30
2022-10-04T18:07:56.978Z,5.88
2022-10-04T18:10:50.596Z,5.75
2022-10-04T18:13:45.870Z,5.73
2022-10-04T18:16:50.907Z,5.97
2022-10-04T18:19:39.282Z,6.88
2022-10-04T18:22:18.519Z,6.80
2022-10-04T18:24:48.281Z,15.52
2022-10-04T18:27:15.726Z,18.00
2022-10-04T18:29:44.177Z,17.27
2022-10-04T18:32:32.292Z,17.10
2022-10-04T18:35:01.268Z,15.35
2022-10-04T18:37:39.404Z,16.92
2022-10-04T18:40:27.044Z,15.37
2022-10-04T18:42:58.503Z,14.95
2022-10-04T18:45:31.147Z,14.75
2022-10-04T18:48:16.110Z,13.90
2022-10-04T18:50:45.394Z,14.07
2022-10-04T18:53:34.030Z,10.90
2022-10-04T18:56:09.658Z,9.93
2022-10-04T18:59:15.398Z,8.13
2022-10-04T19:02:20.793Z,10.25
2022-10-04T19:05:02.173Z,8.98
2022-10-04T19:07:30.175Z,8.47
2022-10-04T19:10:15.068Z,9.57
2022-10-04T19:12:47.365Z,9.02
2022-10-04T19:15:20.865Z,8.75
2022-10-04T19:17:54.556Z,9.48
2022-10-04T19:20:40.307Z,8.87
2022-10-04T19:23:22.392Z,9.18
2022-10-04T19:26:26.332Z,8.27
2022-10-04T19:28:44.119Z,7.55
2022-10-04T19:31:26.214Z,7.25
2022-10-04T19:34:06.835Z,7.60
2022-10-04T19:36:48.302Z,7.47
2022-10-04T19:39:59.186Z,7.10
2022-10-04T19:43:01.729Z,8.15
2022-10-04T19:46:02.464Z,8.02
2022-10-04T19:48:33.905Z,7.13
2022-10-04T19:51:16.756Z,6.57
2022-10-04T19:53:45.467Z,6.72
2022-10-04T19:56:20.381Z,6.70
2022-10-04T19:58:56.228Z,6.30
2022-10-04T20:01:25.133Z,6.00
2022-10-04T20:04:11.638Z,6.00
2022-10-04T20:06:40.960Z,6.47
2022-10-04T20:09:48.427Z,7.10
2022-10-04T20:12:36.611Z,7.15
2022-10-04T20:15:28.572Z,7.27
2022-10-04T20:17:56.769Z,5.95
2022-10-04T20:20:39.585Z,6.45
2022-10-04T20:23:10.632Z,6.03
2022-10-04T20:25:44.440Z,5.38
2022-10-04T20:28:32.919Z,5.40
2022-10-04T20:31:01.445Z,4.55
2022-10-04T20:33:35.020Z,4.93
2022-10-04T20:36:06.671Z,4.68
2022-10-04T20:38:50.935Z,4.72
2022-10-04T20:41:50.634Z,4.87
2022-10-04T20:45:03.965Z,4.70
2022-10-04T20:47:51.320Z,4.97
2022-10-04T20:50:30.048Z,4.88
2022-10-04T20:53:03.026Z,4.72
2022-10-04T20:55:32.948Z,4.33
2022-10-04T20:58:23.865Z,4.38
2022-10-04T21:00:55.849Z,3.95
2022-10-04T21:03:23.736Z,4.20
2022-10-04T21:06:10.864Z,4.10
2022-10-04T21:08:38.431Z,3.73
2022-10-04T21:11:16.788Z,3.95
2022-10-04T21:13:59.724Z,4.07
2022-10-04T21:16:35.618Z,3.85
2022-10-04T21:19:28.564Z,3.75
2022-10-04T21:21:58.526Z,4.07
2022-10-04T21:24:50.839Z,3.50
2022-10-04T21:27:38.203Z,3.80
2022-10-04T21:30:24.807Z,3.65
2022-10-04T21:32:52.504Z,3.53
2022-10-04T21:35:20.128Z,3.90
2022-10-04T21:37:47.894Z,3.70
2022-10-04T21:40:15.461Z,3.42
2022-10-04T21:42:42.893Z,3.10
2022-10-04T21:45:10.634Z,2.85
2022-10-04T21:47:38.141Z,2.97
2022-10-04T21:50:06.042Z,3.83
2022-10-04T21:52:34.097Z,3.40
2022-10-04T21:55:01.556Z,2.80
2022-10-04T21:57:35.419Z,3.42
2022-10-04T22:00:03.284Z,3.10
2022-10-04T22:02:39.781Z,2.80
2022-10-04T22:05:07.559Z,3.22
2022-10-04T22:07:35.457Z,2.65
2022-10-04T22:10:02.996Z,3.45
2022-10-04T22:12:30.557Z,2.37
2022-10-04T22:14:58.259Z,3.10
2022-10-04T22:17:25.651Z,2.60
2022-10-04T22:19:53.351Z,3.20
2022-10-04T22:22:20.851Z,3.10
2022-10-04T22:24:48.704Z,2.90
2022-10-04T22:27:17.075Z,2.88
2022-10-04T22:29:44.817Z,2.78
2022-10-04T22:32:17.536Z,3.20
2022-10-04T22:34:45.290Z,2.97
2022-10-04T22:37:13.011Z,3.47
2022-10-04T22:39:40.437Z,2.90
2022-10-04T22:42:11.357Z,3.03
2022-10-04T22:44:39.063Z,3.10
2022-10-04T22:47:10.645Z,2.80
2022-10-04T22:49:40.475Z,2.77
2022-10-04T22:52:26.135Z,2.80
2022-10-04T22:54:54.213Z,2.72
2022-10-04T22:57:21.629Z,3.20
2022-10-04T22:59:51.091Z,2.72
2022-10-04T23:02:28.413Z,3.03
2022-10-04T23:04:57.389Z,2.47
2022-10-04T23:07:24.939Z,2.70
2022-10-04T23:09:52.400Z,2.40
2022-10-04T23:12:19.931Z,2.88
2022-10-04T23:14:47.759Z,3.00
2022-10-04T23:17:30.919Z,2.30
2022-10-04T23:20:20.416Z,2.88
2022-10-04T23:22:49.565Z,2.67
2022-10-04T23:25:29.377Z,2.90
2022-10-04T23:28:02.415Z,2.87
2022-10-04T23:30:29.971Z,2.67
2022-10-04T23:32:58.397Z,2.78
2022-10-04T23:35:27.047Z,2.78
2022-10-04T23:37:55.390Z,2.70
2022-10-04T23:40:23.968Z,2.70
2022-10-04T23:42:53.034Z,2.85
2022-10-04T23:45:24.571Z,3.08
2022-10-04T23:47:54.602Z,2.95
2022-10-04T23:50:34.997Z,3.22
2022-10-04T23:53:05.915Z,2.60
2022-10-04T23:55:41.173Z,2.80
2022-10-04T23:58:17.807Z,3.22
